Fairbanks International, AK

5:44 AM AKST on December 18, 2014 (GMT -0900)
19th and Kennedy | Change Station
CLOSE
Current Station
Personal Weather Station
Location: Fairbanks, AK
Elevation: 440 ft
Nearby Weather Stations

Elev 440 ft 64.83 °N, 147.80 °W | Updated 4 minutes ago

Overcast
Overcast
16.2 °F
Feels Like 16 °F
N
0.0
Wind Variable Wind from NNW

Today
High -- | Low -- °F
--% Chance of Precip.
Yesterday
High -- | Low -- °F
Precip. -- in
10:56 AM 2:40 PM
Waning Crescent, 14% visible
Pressure 29.72 in
Visibility 2.0 miles
Clouds Overcast 500 ft
Windchill 16 °F
Dew Point 16 °F
Humidity 99%
Rainfall 0.00 in
Snow Depth Not available.
UV 0 out of 12
Pollen Not available.
Air Quality Not available.
Flu Activity Not available.
METAR PAFA 181353Z 17003KT 2SM BR OVC005 M08/M11 A2969 RMK AO2 SLP063 T10831106 $

More Conditions Fewer Conditions

Pressure 29.72 in
Visibility 2.0 miles
Clouds Overcast 500 ft
Windchill 16 °F
Dew Point 16 °F
Humidity 99%
Rainfall 0.00 in
Snow Depth Not available.
UV 0 out of 12
Pollen Not available.
Air Quality Not available.
Flu Activity Not available.
METAR PAFA 181353Z 17003KT 2SM BR OVC005 M08/M11 A2969 RMK AO2 SLP063 T10831106 $

More Conditions Fewer Conditions

10-Day Weather Forecast

Almanac

Astronomy

Dec. 18, 2014 Rise Set
Actual Time
Civil Twilight
Nautical Twilight
Astronomical Twilight
Moon
Length of Visible Light
Length of Day
Tomorrow will be .
, % of the Moon is Illuminated

Today's Extremes

State Highs State Lows

Community

WunderPhotos

Upload Photos

1,778,929 photos uploaded!

WunderBlogs® & News

Nearby

Air Quality

  Air Quality AQ Index Pollutant
Not available.

Snow Depth

Station Depth Elevation

Earthquake Activity

City Distance Mag. Time & Date
Minimum magnitude displayed is 2.5.

Coastal Water Temperatures

Place Temperature

Nearby Weather Stations